sensor_id;sensor_type;location;lat;lon;timestamp;P1;durP1;ratioP1;P2;durP2;ratioP2
69419;SDS011;56612;52.030;113.524;2023-03-23T00:01:49;8.52;;;1.50;;
69419;SDS011;56612;52.030;113.524;2023-03-23T00:04:51;6.97;;;1.60;;
69419;SDS011;56612;52.030;113.524;2023-03-23T00:07:53;5.77;;;1.30;;
69419;SDS011;56612;52.030;113.524;2023-03-23T00:10:56;7.05;;;1.10;;
69419;SDS011;56612;52.030;113.524;2023-03-23T00:13:59;5.40;;;1.23;;
69419;SDS011;56612;52.030;113.524;2023-03-23T00:17:01;4.20;;;0.73;;
69419;SDS011;56612;52.030;113.524;2023-03-23T00:20:04;4.80;;;0.90;;
69419;SDS011;56612;52.030;113.524;2023-03-23T00:23:08;5.10;;;1.03;;
69419;SDS011;56612;52.030;113.524;2023-03-23T00:26:10;4.38;;;1.50;;
69419;SDS011;56612;52.030;113.524;2023-03-23T00:29:14;6.32;;;0.80;;
69419;SDS011;56612;52.030;113.524;2023-03-23T00:32:24;3.10;;;0.80;;
69419;SDS011;56612;52.030;113.524;2023-03-23T00:35:27;4.53;;;0.63;;
69419;SDS011;56612;52.030;113.524;2023-03-23T00:38:29;3.60;;;0.70;;
69419;SDS011;56612;52.030;113.524;2023-03-23T00:41:32;2.75;;;0.50;;
69419;SDS011;56612;52.030;113.524;2023-03-23T00:44:37;3.90;;;0.80;;
69419;SDS011;56612;52.030;113.524;2023-03-23T00:47:41;2.35;;;0.52;;
69419;SDS011;56612;52.030;113.524;2023-03-23T00:50:47;3.00;;;0.50;;
69419;SDS011;56612;52.030;113.524;2023-03-23T00:53:51;6.53;;;0.70;;
69419;SDS011;56612;52.030;113.524;2023-03-23T00:56:53;3.28;;;0.85;;
69419;SDS011;56612;52.030;113.524;2023-03-23T00:59:55;5.95;;;1.33;;
69419;SDS011;56612;52.030;113.524;2023-03-23T01:02:57;3.47;;;0.68;;
69419;SDS011;56612;52.030;113.524;2023-03-23T01:06:03;7.85;;;1.38;;
69419;SDS011;56612;52.030;113.524;2023-03-23T01:09:16;2.20;;;0.37;;
69419;SDS011;56612;52.030;113.524;2023-03-23T01:12:22;5.13;;;0.40;;
69419;SDS011;56612;52.030;113.524;2023-03-23T01:15:25;3.42;;;0.85;;
69419;SDS011;56612;52.030;113.524;2023-03-23T01:18:27;5.25;;;0.70;;
69419;SDS011;56612;52.030;113.524;2023-03-23T01:21:29;2.55;;;0.50;;
69419;SDS011;56612;52.030;113.524;2023-03-23T01:24:33;2.57;;;0.50;;
69419;SDS011;56612;52.030;113.524;2023-03-23T01:27:35;2.78;;;0.57;;
69419;SDS011;56612;52.030;113.524;2023-03-23T01:30:36;2.65;;;0.57;;
69419;SDS011;56612;52.030;113.524;2023-03-23T01:33:39;2.40;;;0.70;;
69419;SDS011;56612;52.030;113.524;2023-03-23T01:36:42;7.15;;;0.60;;
69419;SDS011;56612;52.030;113.524;2023-03-23T01:39:44;2.47;;;0.50;;
69419;SDS011;56612;52.030;113.524;2023-03-23T01:42:46;6.15;;;1.02;;
69419;SDS011;56612;52.030;113.524;2023-03-23T01:45:50;4.35;;;0.50;;
69419;SDS011;56612;52.030;113.524;2023-03-23T01:48:51;2.42;;;0.40;;
69419;SDS011;56612;52.030;113.524;2023-03-23T01:51:54;2.65;;;0.50;;
69419;SDS011;56612;52.030;113.524;2023-03-23T01:55:01;1.33;;;0.30;;
69419;SDS011;56612;52.030;113.524;2023-03-23T01:58:03;3.55;;;0.50;;
69419;SDS011;56612;52.030;113.524;2023-03-23T02:01:06;2.92;;;0.52;;
69419;SDS011;56612;52.030;113.524;2023-03-23T02:04:13;5.38;;;0.80;;
69419;SDS011;56612;52.030;113.524;2023-03-23T02:07:19;5.75;;;1.58;;
69419;SDS011;56612;52.030;113.524;2023-03-23T02:10:23;3.80;;;0.80;;
69419;SDS011;56612;52.030;113.524;2023-03-23T02:13:26;3.10;;;0.55;;
69419;SDS011;56612;52.030;113.524;2023-03-23T02:16:45;2.50;;;0.55;;
69419;SDS011;56612;52.030;113.524;2023-03-23T02:23:25;3.88;;;1.00;;
69419;SDS011;56612;52.030;113.524;2023-03-23T02:36:36;4.28;;;1.30;;
69419;SDS011;56612;52.030;113.524;2023-03-23T02:39:49;4.30;;;1.20;;
69419;SDS011;56612;52.030;113.524;2023-03-23T02:42:56;5.07;;;1.60;;
69419;SDS011;56612;52.030;113.524;2023-03-23T02:46:00;7.22;;;2.35;;
69419;SDS011;56612;52.030;113.524;2023-03-23T02:49:08;2.25;;;0.60;;
69419;SDS011;56612;52.030;113.524;2023-03-23T02:52:14;3.55;;;0.80;;
69419;SDS011;56612;52.030;113.524;2023-03-23T02:55:22;6.55;;;2.17;;
69419;SDS011;56612;52.030;113.524;2023-03-23T02:58:26;4.70;;;1.30;;
69419;SDS011;56612;52.030;113.524;2023-03-23T03:04:34;5.10;;;1.30;;
69419;SDS011;56612;52.030;113.524;2023-03-23T03:11:16;4.03;;;0.85;;
69419;SDS011;56612;52.030;113.524;2023-03-23T03:14:24;4.03;;;0.87;;
69419;SDS011;56612;52.030;113.524;2023-03-23T03:17:32;3.45;;;0.70;;
69419;SDS011;56612;52.030;113.524;2023-03-23T03:20:45;3.60;;;0.88;;
69419;SDS011;56612;52.030;113.524;2023-03-23T03:23:51;3.85;;;0.75;;
69419;SDS011;56612;52.030;113.524;2023-03-23T03:26:57;2.50;;;0.60;;
69419;SDS011;56612;52.030;113.524;2023-03-23T03:30:09;2.30;;;0.60;;
69419;SDS011;56612;52.030;113.524;2023-03-23T03:33:18;2.75;;;0.88;;
69419;SDS011;56612;52.030;113.524;2023-03-23T03:36:24;3.88;;;1.40;;
69419;SDS011;56612;52.030;113.524;2023-03-23T03:39:29;2.85;;;0.88;;
69419;SDS011;56612;52.030;113.524;2023-03-23T03:42:30;3.15;;;0.90;;
69419;SDS011;56612;52.030;113.524;2023-03-23T03:45:33;2.80;;;0.90;;
69419;SDS011;56612;52.030;113.524;2023-03-23T03:48:35;3.33;;;0.80;;
69419;SDS011;56612;52.030;113.524;2023-03-23T03:51:38;2.08;;;0.60;;
69419;SDS011;56612;52.030;113.524;2023-03-23T03:54:45;3.67;;;0.95;;
69419;SDS011;56612;52.030;113.524;2023-03-23T03:57:47;2.85;;;1.05;;
69419;SDS011;56612;52.030;113.524;2023-03-23T04:01:19;4.53;;;0.70;;
69419;SDS011;56612;52.030;113.524;2023-03-23T04:04:25;3.30;;;0.60;;
69419;SDS011;56612;52.030;113.524;2023-03-23T04:07:28;2.92;;;0.70;;
69419;SDS011;56612;52.030;113.524;2023-03-23T04:10:31;3.75;;;1.02;;
69419;SDS011;56612;52.030;113.524;2023-03-23T04:13:35;2.60;;;0.90;;
69419;SDS011;56612;52.030;113.524;2023-03-23T04:16:53;3.60;;;0.70;;
69419;SDS011;56612;52.030;113.524;2023-03-23T04:19:58;3.83;;;0.90;;
69419;SDS011;56612;52.030;113.524;2023-03-23T04:23:03;2.72;;;0.90;;
69419;SDS011;56612;52.030;113.524;2023-03-23T04:26:07;4.00;;;1.15;;
69419;SDS011;56612;52.030;113.524;2023-03-23T04:29:13;3.47;;;0.90;;
69419;SDS011;56612;52.030;113.524;2023-03-23T04:32:49;1.70;;;0.50;;
69419;SDS011;56612;52.030;113.524;2023-03-23T04:35:58;2.20;;;0.73;;
69419;SDS011;56612;52.030;113.524;2023-03-23T04:39:09;3.28;;;0.98;;
69419;SDS011;56612;52.030;113.524;2023-03-23T04:42:12;3.33;;;1.20;;
69419;SDS011;56612;52.030;113.524;2023-03-23T04:45:21;2.38;;;0.80;;
69419;SDS011;56612;52.030;113.524;2023-03-23T04:48:26;2.67;;;0.73;;
69419;SDS011;56612;52.030;113.524;2023-03-23T04:51:39;3.13;;;0.70;;
69419;SDS011;56612;52.030;113.524;2023-03-23T04:54:54;4.05;;;0.80;;
69419;SDS011;56612;52.030;113.524;2023-03-23T04:58:00;4.97;;;1.50;;
69419;SDS011;56612;52.030;113.524;2023-03-23T05:01:12;4.65;;;0.95;;
69419;SDS011;56612;52.030;113.524;2023-03-23T05:04:32;3.23;;;1.00;;
69419;SDS011;56612;52.030;113.524;2023-03-23T05:07:43;3.92;;;1.20;;
69419;SDS011;56612;52.030;113.524;2023-03-23T05:10:58;2.42;;;0.73;;
69419;SDS011;56612;52.030;113.524;2023-03-23T05:14:06;2.90;;;1.00;;
69419;SDS011;56612;52.030;113.524;2023-03-23T05:17:09;3.17;;;1.10;;
69419;SDS011;56612;52.030;113.524;2023-03-23T05:20:13;3.13;;;1.00;;
69419;SDS011;56612;52.030;113.524;2023-03-23T05:23:22;4.35;;;1.45;;
69419;SDS011;56612;52.030;113.524;2023-03-23T05:26:31;4.30;;;1.20;;
69419;SDS011;56612;52.030;113.524;2023-03-23T05:29:40;4.38;;;1.50;;
69419;SDS011;56612;52.030;113.524;2023-03-23T05:32:43;3.67;;;1.17;;
69419;SDS011;56612;52.030;113.524;2023-03-23T05:36:18;3.80;;;0.83;;
69419;SDS011;56612;52.030;113.524;2023-03-23T05:39:41;2.72;;;0.77;;
69419;SDS011;56612;52.030;113.524;2023-03-23T05:43:09;4.05;;;1.50;;
69419;SDS011;56612;52.030;113.524;2023-03-23T05:46:40;4.18;;;1.35;;
69419;SDS011;56612;52.030;113.524;2023-03-23T05:49:42;2.53;;;1.30;;
69419;SDS011;56612;52.030;113.524;2023-03-23T05:52:49;3.50;;;1.20;;
69419;SDS011;56612;52.030;113.524;2023-03-23T05:55:57;4.03;;;1.30;;
69419;SDS011;56612;52.030;113.524;2023-03-23T05:59:21;4.03;;;1.20;;
69419;SDS011;56612;52.030;113.524;2023-03-23T06:02:26;5.70;;;1.42;;
69419;SDS011;56612;52.030;113.524;2023-03-23T06:05:30;4.10;;;1.60;;
69419;SDS011;56612;52.030;113.524;2023-03-23T06:08:33;4.80;;;1.00;;
69419;SDS011;56612;52.030;113.524;2023-03-23T06:11:39;2.65;;;1.02;;
69419;SDS011;56612;52.030;113.524;2023-03-23T06:15:09;2.60;;;0.70;;
69419;SDS011;56612;52.030;113.524;2023-03-23T06:18:31;4.30;;;1.20;;
69419;SDS011;56612;52.030;113.524;2023-03-23T06:21:41;3.40;;;1.13;;
69419;SDS011;56612;52.030;113.524;2023-03-23T06:25:04;4.00;;;1.50;;
69419;SDS011;56612;52.030;113.524;2023-03-23T06:28:14;3.05;;;1.30;;
69419;SDS011;56612;52.030;113.524;2023-03-23T06:31:21;2.70;;;1.00;;
69419;SDS011;56612;52.030;113.524;2023-03-23T06:34:24;6.40;;;2.85;;
69419;SDS011;56612;52.030;113.524;2023-03-23T06:37:44;6.70;;;2.67;;
69419;SDS011;56612;52.030;113.524;2023-03-23T06:41:00;4.37;;;1.47;;
69419;SDS011;56612;52.030;113.524;2023-03-23T06:44:04;6.40;;;2.55;;
69419;SDS011;56612;52.030;113.524;2023-03-23T06:47:07;7.90;;;3.40;;
69419;SDS011;56612;52.030;113.524;2023-03-23T06:50:12;3.33;;;1.20;;
69419;SDS011;56612;52.030;113.524;2023-03-23T06:53:14;2.97;;;1.10;;
69419;SDS011;56612;52.030;113.524;2023-03-23T06:56:19;3.83;;;1.13;;
69419;SDS011;56612;52.030;113.524;2023-03-23T06:59:21;3.70;;;1.25;;
69419;SDS011;56612;52.030;113.524;2023-03-23T07:02:23;4.32;;;1.42;;
69419;SDS011;56612;52.030;113.524;2023-03-23T07:05:27;3.05;;;0.70;;
69419;SDS011;56612;52.030;113.524;2023-03-23T07:08:29;3.35;;;0.90;;
69419;SDS011;56612;52.030;113.524;2023-03-23T07:11:31;3.80;;;1.20;;
69419;SDS011;56612;52.030;113.524;2023-03-23T07:14:40;2.00;;;0.80;;
69419;SDS011;56612;52.030;113.524;2023-03-23T07:17:43;7.15;;;3.15;;
69419;SDS011;56612;52.030;113.524;2023-03-23T07:20:51;9.32;;;3.03;;
69419;SDS011;56612;52.030;113.524;2023-03-23T07:23:58;10.90;;;3.20;;
69419;SDS011;56612;52.030;113.524;2023-03-23T07:27:24;5.13;;;1.37;;
69419;SDS011;56612;52.030;113.524;2023-03-23T07:30:29;3.33;;;1.20;;
69419;SDS011;56612;52.030;113.524;2023-03-23T07:33:32;3.33;;;1.00;;
69419;SDS011;56612;52.030;113.524;2023-03-23T07:36:36;3.28;;;1.08;;
69419;SDS011;56612;52.030;113.524;2023-03-23T07:39:40;2.65;;;1.10;;
69419;SDS011;56612;52.030;113.524;2023-03-23T07:42:45;3.33;;;1.40;;
69419;SDS011;56612;52.030;113.524;2023-03-23T07:46:00;2.53;;;0.82;;
69419;SDS011;56612;52.030;113.524;2023-03-23T07:49:12;3.45;;;1.38;;
69419;SDS011;56612;52.030;113.524;2023-03-23T07:52:20;4.00;;;2.05;;
69419;SDS011;56612;52.030;113.524;2023-03-23T07:55:21;10.10;;;4.07;;
69419;SDS011;56612;52.030;113.524;2023-03-23T07:58:35;7.37;;;2.63;;
69419;SDS011;56612;52.030;113.524;2023-03-23T08:01:37;7.25;;;2.83;;
69419;SDS011;56612;52.030;113.524;2023-03-23T08:05:00;7.38;;;3.35;;
69419;SDS011;56612;52.030;113.524;2023-03-23T08:08:04;7.30;;;2.30;;
69419;SDS011;56612;52.030;113.524;2023-03-23T08:11:26;8.80;;;2.97;;
69419;SDS011;56612;52.030;113.524;2023-03-23T08:14:57;3.57;;;1.40;;
69419;SDS011;56612;52.030;113.524;2023-03-23T08:18:14;4.07;;;1.52;;
69419;SDS011;56612;52.030;113.524;2023-03-23T08:21:36;1.90;;;0.70;;
69419;SDS011;56612;52.030;113.524;2023-03-23T08:24:50;2.30;;;0.85;;
69419;SDS011;56612;52.030;113.524;2023-03-23T08:28:23;5.53;;;2.53;;
69419;SDS011;56612;52.030;113.524;2023-03-23T08:31:44;12.27;;;4.70;;
69419;SDS011;56612;52.030;113.524;2023-03-23T08:35:06;7.10;;;2.35;;
69419;SDS011;56612;52.030;113.524;2023-03-23T08:38:16;4.43;;;1.67;;
69419;SDS011;56612;52.030;113.524;2023-03-23T08:41:41;5.90;;;1.60;;
69419;SDS011;56612;52.030;113.524;2023-03-23T08:44:52;4.65;;;1.70;;
69419;SDS011;56612;52.030;113.524;2023-03-23T08:48:21;4.83;;;1.80;;
69419;SDS011;56612;52.030;113.524;2023-03-23T08:51:36;4.40;;;1.88;;
69419;SDS011;56612;52.030;113.524;2023-03-23T08:54:44;3.60;;;1.50;;
69419;SDS011;56612;52.030;113.524;2023-03-23T08:58:05;3.75;;;1.38;;
69419;SDS011;56612;52.030;113.524;2023-03-23T09:01:27;3.42;;;1.67;;
69419;SDS011;56612;52.030;113.524;2023-03-23T09:04:39;3.53;;;1.40;;
69419;SDS011;56612;52.030;113.524;2023-03-23T09:08:16;4.07;;;2.10;;
69419;SDS011;56612;52.030;113.524;2023-03-23T09:11:18;5.55;;;2.67;;
69419;SDS011;56612;52.030;113.524;2023-03-23T09:14:20;4.13;;;2.05;;
69419;SDS011;56612;52.030;113.524;2023-03-23T09:17:22;5.10;;;2.30;;
69419;SDS011;56612;52.030;113.524;2023-03-23T09:20:25;5.13;;;2.20;;
69419;SDS011;56612;52.030;113.524;2023-03-23T09:23:28;4.00;;;1.67;;
69419;SDS011;56612;52.030;113.524;2023-03-23T09:26:31;3.42;;;1.25;;
69419;SDS011;56612;52.030;113.524;2023-03-23T09:29:33;3.50;;;1.40;;
69419;SDS011;56612;52.030;113.524;2023-03-23T09:32:36;3.33;;;1.50;;
69419;SDS011;56612;52.030;113.524;2023-03-23T09:35:38;3.93;;;1.70;;
69419;SDS011;56612;52.030;113.524;2023-03-23T09:38:42;2.80;;;1.10;;
69419;SDS011;56612;52.030;113.524;2023-03-23T09:41:57;3.42;;;1.20;;
69419;SDS011;56612;52.030;113.524;2023-03-23T09:51:47;2.80;;;1.00;;
69419;SDS011;56612;52.030;113.524;2023-03-23T09:55:05;2.75;;;1.00;;
69419;SDS011;56612;52.030;113.524;2023-03-23T09:58:24;3.10;;;0.90;;
69419;SDS011;56612;52.030;113.524;2023-03-23T10:01:55;4.47;;;1.38;;
69419;SDS011;56612;52.030;113.524;2023-03-23T10:05:25;4.25;;;1.42;;
69419;SDS011;56612;52.030;113.524;2023-03-23T10:08:33;4.43;;;1.60;;
69419;SDS011;56612;52.030;113.524;2023-03-23T10:15:00;4.75;;;1.55;;
69419;SDS011;56612;52.030;113.524;2023-03-23T10:18:24;5.50;;;1.63;;
69419;SDS011;56612;52.030;113.524;2023-03-23T10:21:50;5.15;;;1.50;;
69419;SDS011;56612;52.030;113.524;2023-03-23T10:28:19;5.80;;;2.00;;
69419;SDS011;56612;52.030;113.524;2023-03-23T10:31:31;5.30;;;1.73;;
69419;SDS011;56612;52.030;113.524;2023-03-23T10:34:39;5.20;;;1.88;;
69419;SDS011;56612;52.030;113.524;2023-03-23T10:37:50;6.00;;;2.35;;
69419;SDS011;56612;52.030;113.524;2023-03-23T10:41:04;7.27;;;3.00;;
69419;SDS011;56612;52.030;113.524;2023-03-23T10:44:22;7.38;;;1.92;;
69419;SDS011;56612;52.030;113.524;2023-03-23T10:47:28;6.72;;;1.90;;
69419;SDS011;56612;52.030;113.524;2023-03-23T10:50:31;7.93;;;2.03;;
69419;SDS011;56612;52.030;113.524;2023-03-23T10:53:37;10.65;;;3.08;;
69419;SDS011;56612;52.030;113.524;2023-03-23T10:56:42;10.10;;;3.23;;
69419;SDS011;56612;52.030;113.524;2023-03-23T10:59:47;8.48;;;2.28;;
69419;SDS011;56612;52.030;113.524;2023-03-23T11:06:10;6.72;;;1.60;;
69419;SDS011;56612;52.030;113.524;2023-03-23T11:09:21;4.70;;;1.67;;
69419;SDS011;56612;52.030;113.524;2023-03-23T11:12:36;8.60;;;2.30;;
69419;SDS011;56612;52.030;113.524;2023-03-23T11:15:39;13.85;;;4.18;;
69419;SDS011;56612;52.030;113.524;2023-03-23T11:18:42;14.82;;;4.30;;
69419;SDS011;56612;52.030;113.524;2023-03-23T11:21:47;13.82;;;3.90;;
69419;SDS011;56612;52.030;113.524;2023-03-23T11:24:52;17.23;;;5.55;;
69419;SDS011;56612;52.030;113.524;2023-03-23T11:27:57;13.33;;;3.93;;
69419;SDS011;56612;52.030;113.524;2023-03-23T11:31:00;16.27;;;4.28;;
69419;SDS011;56612;52.030;113.524;2023-03-23T11:34:08;16.75;;;5.15;;
69419;SDS011;56612;52.030;113.524;2023-03-23T11:37:32;13.00;;;3.60;;
69419;SDS011;56612;52.030;113.524;2023-03-23T11:40:46;10.52;;;3.15;;
69419;SDS011;56612;52.030;113.524;2023-03-23T11:43:51;12.20;;;3.60;;
69419;SDS011;56612;52.030;113.524;2023-03-23T11:56:38;27.00;;;9.70;;
69419;SDS011;56612;52.030;113.524;2023-03-23T11:59:43;31.67;;;10.40;;
69419;SDS011;56612;52.030;113.524;2023-03-23T12:06:50;52.10;;;18.00;;
69419;SDS011;56612;52.030;113.524;2023-03-23T12:09:56;49.92;;;17.63;;
69419;SDS011;56612;52.030;113.524;2023-03-23T12:26:31;45.95;;;16.70;;
69419;SDS011;56612;52.030;113.524;2023-03-23T12:33:03;55.77;;;19.03;;
69419;SDS011;56612;52.030;113.524;2023-03-23T12:36:29;62.78;;;20.63;;
69419;SDS011;56612;52.030;113.524;2023-03-23T12:39:48;88.18;;;28.02;;
69419;SDS011;56612;52.030;113.524;2023-03-23T12:50:33;113.23;;;35.10;;
69419;SDS011;56612;52.030;113.524;2023-03-23T13:07:17;111.17;;;36.33;;
69419;SDS011;56612;52.030;113.524;2023-03-23T13:10:32;123.60;;;38.50;;
69419;SDS011;56612;52.030;113.524;2023-03-23T13:24:17;117.10;;;37.63;;
69419;SDS011;56612;52.030;113.524;2023-03-23T13:27:26;103.03;;;34.45;;
69419;SDS011;56612;52.030;113.524;2023-03-23T13:30:30;102.88;;;35.65;;
69419;SDS011;56612;52.030;113.524;2023-03-23T13:33:35;104.03;;;33.25;;
69419;SDS011;56612;52.030;113.524;2023-03-23T13:36:45;124.65;;;42.30;;
69419;SDS011;56612;52.030;113.524;2023-03-23T13:39:55;110.93;;;34.77;;
69419;SDS011;56612;52.030;113.524;2023-03-23T13:43:27;105.35;;;33.38;;
69419;SDS011;56612;52.030;113.524;2023-03-23T13:46:33;111.47;;;34.38;;
69419;SDS011;56612;52.030;113.524;2023-03-23T13:49:45;95.20;;;30.17;;
69419;SDS011;56612;52.030;113.524;2023-03-23T13:52:53;101.13;;;33.30;;
69419;SDS011;56612;52.030;113.524;2023-03-23T13:56:13;92.30;;;29.90;;
69419;SDS011;56612;52.030;113.524;2023-03-23T13:59:31;96.00;;;31.05;;
69419;SDS011;56612;52.030;113.524;2023-03-23T14:02:39;96.53;;;30.60;;
69419;SDS011;56612;52.030;113.524;2023-03-23T14:09:04;109.57;;;32.70;;
69419;SDS011;56612;52.030;113.524;2023-03-23T14:15:28;109.93;;;34.65;;
69419;SDS011;56612;52.030;113.524;2023-03-23T14:18:39;143.63;;;42.05;;
69419;SDS011;56612;52.030;113.524;2023-03-23T14:21:48;112.85;;;35.35;;
69419;SDS011;56612;52.030;113.524;2023-03-23T14:25:02;116.60;;;38.97;;
69419;SDS011;56612;52.030;113.524;2023-03-23T14:28:18;102.07;;;34.43;;
69419;SDS011;56612;52.030;113.524;2023-03-23T14:31:23;180.50;;;47.28;;
69419;SDS011;56612;52.030;113.524;2023-03-23T14:34:28;174.43;;;51.50;;
69419;SDS011;56612;52.030;113.524;2023-03-23T14:37:33;135.63;;;43.40;;
69419;SDS011;56612;52.030;113.524;2023-03-23T14:40:36;201.88;;;61.42;;
69419;SDS011;56612;52.030;113.524;2023-03-23T14:43:38;186.67;;;53.87;;
69419;SDS011;56612;52.030;113.524;2023-03-23T14:46:40;216.88;;;62.33;;
69419;SDS011;56612;52.030;113.524;2023-03-23T14:49:44;193.23;;;52.33;;
69419;SDS011;56612;52.030;113.524;2023-03-23T14:52:47;178.25;;;53.83;;
69419;SDS011;56612;52.030;113.524;2023-03-23T14:55:51;135.85;;;43.17;;
69419;SDS011;56612;52.030;113.524;2023-03-23T14:58:54;190.57;;;60.33;;
69419;SDS011;56612;52.030;113.524;2023-03-23T15:02:03;140.05;;;43.67;;
69419;SDS011;56612;52.030;113.524;2023-03-23T15:05:13;159.93;;;48.63;;
69419;SDS011;56612;52.030;113.524;2023-03-23T15:08:30;146.40;;;47.40;;
69419;SDS011;56612;52.030;113.524;2023-03-23T15:11:35;151.23;;;47.03;;
69419;SDS011;56612;52.030;113.524;2023-03-23T15:14:45;187.10;;;56.07;;
69419;SDS011;56612;52.030;113.524;2023-03-23T15:17:50;151.00;;;48.00;;
69419;SDS011;56612;52.030;113.524;2023-03-23T15:20:53;154.15;;;46.25;;
69419;SDS011;56612;52.030;113.524;2023-03-23T15:23:55;112.63;;;38.20;;
69419;SDS011;56612;52.030;113.524;2023-03-23T15:33:24;124.15;;;39.20;;
69419;SDS011;56612;52.030;113.524;2023-03-23T15:36:31;125.65;;;38.40;;
69419;SDS011;56612;52.030;113.524;2023-03-23T15:39:39;125.93;;;36.28;;
69419;SDS011;56612;52.030;113.524;2023-03-23T15:42:42;115.60;;;33.97;;
69419;SDS011;56612;52.030;113.524;2023-03-23T15:49:12;94.72;;;31.73;;
69419;SDS011;56612;52.030;113.524;2023-03-23T15:52:16;83.45;;;27.05;;
69419;SDS011;56612;52.030;113.524;2023-03-23T15:55:22;118.18;;;37.10;;
69419;SDS011;56612;52.030;113.524;2023-03-23T15:58:24;105.97;;;33.42;;
69419;SDS011;56612;52.030;113.524;2023-03-23T16:01:28;135.30;;;39.47;;
69419;SDS011;56612;52.030;113.524;2023-03-23T16:04:32;133.90;;;40.10;;
69419;SDS011;56612;52.030;113.524;2023-03-23T16:07:36;123.00;;;38.72;;
69419;SDS011;56612;52.030;113.524;2023-03-23T16:10:40;135.05;;;38.85;;
69419;SDS011;56612;52.030;113.524;2023-03-23T16:13:45;113.25;;;34.10;;
69419;SDS011;56612;52.030;113.524;2023-03-23T16:16:49;140.50;;;34.83;;
69419;SDS011;56612;52.030;113.524;2023-03-23T16:19:54;101.55;;;32.00;;
69419;SDS011;56612;52.030;113.524;2023-03-23T16:22:57;85.57;;;28.90;;
69419;SDS011;56612;52.030;113.524;2023-03-23T16:26:01;105.40;;;30.13;;
69419;SDS011;56612;52.030;113.524;2023-03-23T16:29:12;101.88;;;30.63;;
69419;SDS011;56612;52.030;113.524;2023-03-23T16:32:32;151.53;;;39.07;;
69419;SDS011;56612;52.030;113.524;2023-03-23T16:35:34;144.75;;;39.40;;
69419;SDS011;56612;52.030;113.524;2023-03-23T16:38:39;84.65;;;28.02;;
69419;SDS011;56612;52.030;113.524;2023-03-23T16:41:51;117.93;;;33.78;;
69419;SDS011;56612;52.030;113.524;2023-03-23T16:44:54;105.72;;;31.75;;
69419;SDS011;56612;52.030;113.524;2023-03-23T16:47:58;143.30;;;39.93;;
69419;SDS011;56612;52.030;113.524;2023-03-23T16:51:02;164.52;;;42.65;;
69419;SDS011;56612;52.030;113.524;2023-03-23T16:54:05;128.88;;;35.83;;
69419;SDS011;56612;52.030;113.524;2023-03-23T16:57:09;127.28;;;37.50;;
69419;SDS011;56612;52.030;113.524;2023-03-23T17:00:13;95.88;;;29.70;;
69419;SDS011;56612;52.030;113.524;2023-03-23T17:03:21;87.63;;;25.77;;
69419;SDS011;56612;52.030;113.524;2023-03-23T17:06:24;76.93;;;24.67;;
69419;SDS011;56612;52.030;113.524;2023-03-23T17:09:28;167.98;;;46.17;;
69419;SDS011;56612;52.030;113.524;2023-03-23T17:12:32;170.90;;;44.08;;
69419;SDS011;56612;52.030;113.524;2023-03-23T17:15:37;96.82;;;28.60;;
69419;SDS011;56612;52.030;113.524;2023-03-23T17:18:47;96.17;;;27.40;;
69419;SDS011;56612;52.030;113.524;2023-03-23T17:21:50;131.80;;;36.28;;
69419;SDS011;56612;52.030;113.524;2023-03-23T17:24:54;132.57;;;36.28;;
69419;SDS011;56612;52.030;113.524;2023-03-23T17:27:58;93.72;;;27.25;;
69419;SDS011;56612;52.030;113.524;2023-03-23T17:31:08;101.70;;;29.10;;
69419;SDS011;56612;52.030;113.524;2023-03-23T17:34:11;104.63;;;30.15;;
69419;SDS011;56612;52.030;113.524;2023-03-23T17:37:15;76.53;;;25.02;;
69419;SDS011;56612;52.030;113.524;2023-03-23T17:40:19;75.78;;;23.02;;
69419;SDS011;56612;52.030;113.524;2023-03-23T17:43:22;72.07;;;21.83;;
69419;SDS011;56612;52.030;113.524;2023-03-23T17:46:26;61.90;;;19.13;;
69419;SDS011;56612;52.030;113.524;2023-03-23T17:49:30;57.30;;;16.58;;
69419;SDS011;56612;52.030;113.524;2023-03-23T17:52:34;66.18;;;18.45;;
69419;SDS011;56612;52.030;113.524;2023-03-23T17:55:38;60.50;;;18.00;;
69419;SDS011;56612;52.030;113.524;2023-03-23T17:58:46;58.80;;;16.10;;
69419;SDS011;56612;52.030;113.524;2023-03-23T18:01:50;47.92;;;16.02;;
69419;SDS011;56612;52.030;113.524;2023-03-23T18:04:56;56.75;;;19.92;;
69419;SDS011;56612;52.030;113.524;2023-03-23T18:08:00;58.58;;;19.45;;
69419;SDS011;56612;52.030;113.524;2023-03-23T18:11:04;50.93;;;16.40;;
69419;SDS011;56612;52.030;113.524;2023-03-23T18:14:08;62.67;;;17.35;;
69419;SDS011;56612;52.030;113.524;2023-03-23T18:17:12;59.83;;;18.92;;
69419;SDS011;56612;52.030;113.524;2023-03-23T18:20:15;57.83;;;18.00;;
69419;SDS011;56612;52.030;113.524;2023-03-23T18:23:19;55.05;;;17.70;;
69419;SDS011;56612;52.030;113.524;2023-03-23T18:26:22;76.18;;;20.48;;
69419;SDS011;56612;52.030;113.524;2023-03-23T18:29:25;68.15;;;20.35;;
69419;SDS011;56612;52.030;113.524;2023-03-23T18:32:29;68.05;;;19.45;;
69419;SDS011;56612;52.030;113.524;2023-03-23T18:35:33;77.27;;;22.03;;
69419;SDS011;56612;52.030;113.524;2023-03-23T18:38:36;81.75;;;23.70;;
69419;SDS011;56612;52.030;113.524;2023-03-23T18:41:40;80.38;;;24.02;;
69419;SDS011;56612;52.030;113.524;2023-03-23T18:44:43;86.05;;;24.50;;
69419;SDS011;56612;52.030;113.524;2023-03-23T18:47:47;86.28;;;23.67;;
69419;SDS011;56612;52.030;113.524;2023-03-23T18:50:52;92.45;;;27.40;;
69419;SDS011;56612;52.030;113.524;2023-03-23T18:53:57;78.45;;;22.63;;
69419;SDS011;56612;52.030;113.524;2023-03-23T18:57:01;77.68;;;21.20;;
69419;SDS011;56612;52.030;113.524;2023-03-23T19:00:05;71.83;;;21.63;;
69419;SDS011;56612;52.030;113.524;2023-03-23T19:03:10;76.97;;;19.65;;
69419;SDS011;56612;52.030;113.524;2023-03-23T19:06:20;68.60;;;20.42;;
69419;SDS011;56612;52.030;113.524;2023-03-23T19:09:26;74.15;;;21.55;;
69419;SDS011;56612;52.030;113.524;2023-03-23T19:12:31;63.80;;;20.47;;
69419;SDS011;56612;52.030;113.524;2023-03-23T19:15:38;81.97;;;23.70;;
69419;SDS011;56612;52.030;113.524;2023-03-23T19:18:43;71.13;;;23.13;;
69419;SDS011;56612;52.030;113.524;2023-03-23T19:21:47;73.00;;;22.10;;
69419;SDS011;56612;52.030;113.524;2023-03-23T19:24:57;80.23;;;24.17;;
69419;SDS011;56612;52.030;113.524;2023-03-23T19:28:01;65.15;;;20.90;;
69419;SDS011;56612;52.030;113.524;2023-03-23T19:31:07;76.60;;;22.40;;
69419;SDS011;56612;52.030;113.524;2023-03-23T19:34:11;74.28;;;23.70;;
69419;SDS011;56612;52.030;113.524;2023-03-23T19:37:16;70.90;;;24.23;;
69419;SDS011;56612;52.030;113.524;2023-03-23T19:40:19;74.10;;;22.23;;
69419;SDS011;56612;52.030;113.524;2023-03-23T19:43:26;75.40;;;23.13;;
69419;SDS011;56612;52.030;113.524;2023-03-23T19:46:29;62.58;;;20.63;;
69419;SDS011;56612;52.030;113.524;2023-03-23T19:49:33;80.07;;;24.83;;
69419;SDS011;56612;52.030;113.524;2023-03-23T19:52:37;73.70;;;24.10;;
69419;SDS011;56612;52.030;113.524;2023-03-23T19:55:42;68.55;;;22.83;;
69419;SDS011;56612;52.030;113.524;2023-03-23T19:58:45;100.82;;;31.42;;